sensor_id;sensor_type;location;lat;lon;timestamp;P1;durP1;ratioP1;P2;durP2;ratioP2
10467;SDS011;5281;48.878;9.394;2023-09-18T00:01:13;3.75;;;2.55;;
10467;SDS011;5281;48.878;9.394;2023-09-18T00:03:40;2.58;;;2.30;;
10467;SDS011;5281;48.878;9.394;2023-09-18T00:06:07;2.78;;;2.47;;
10467;SDS011;5281;48.878;9.394;2023-09-18T00:08:36;4.65;;;2.47;;
10467;SDS011;5281;48.878;9.394;2023-09-18T00:11:05;3.78;;;2.30;;
10467;SDS011;5281;48.878;9.394;2023-09-18T00:13:34;3.92;;;2.60;;
10467;SDS011;5281;48.878;9.394;2023-09-18T00:16:00;3.33;;;2.30;;
10467;SDS011;5281;48.878;9.394;2023-09-18T00:18:29;3.45;;;2.40;;
10467;SDS011;5281;48.878;9.394;2023-09-18T00:20:55;3.45;;;2.80;;
10467;SDS011;5281;48.878;9.394;2023-09-18T00:23:22;3.03;;;2.22;;
10467;SDS011;5281;48.878;9.394;2023-09-18T00:25:49;2.60;;;2.33;;
10467;SDS011;5281;48.878;9.394;2023-09-18T00:28:16;3.67;;;2.55;;
10467;SDS011;5281;48.878;9.394;2023-09-18T00:30:46;2.78;;;2.22;;
10467;SDS011;5281;48.878;9.394;2023-09-18T00:33:14;3.45;;;2.50;;
10467;SDS011;5281;48.878;9.394;2023-09-18T00:35:44;6.35;;;2.40;;
10467;SDS011;5281;48.878;9.394;2023-09-18T00:38:11;2.88;;;2.50;;
10467;SDS011;5281;48.878;9.394;2023-09-18T00:40:38;3.58;;;2.40;;
10467;SDS011;5281;48.878;9.394;2023-09-18T00:43:05;2.72;;;2.33;;
10467;SDS011;5281;48.878;9.394;2023-09-18T00:45:32;4.90;;;2.70;;
10467;SDS011;5281;48.878;9.394;2023-09-18T00:48:01;5.97;;;2.60;;
10467;SDS011;5281;48.878;9.394;2023-09-18T00:50:28;4.15;;;2.50;;
10467;SDS011;5281;48.878;9.394;2023-09-18T00:52:55;2.70;;;2.50;;
10467;SDS011;5281;48.878;9.394;2023-09-18T00:55:21;2.97;;;2.30;;
10467;SDS011;5281;48.878;9.394;2023-09-18T00:57:48;2.67;;;2.47;;
10467;SDS011;5281;48.878;9.394;2023-09-18T01:00:15;2.63;;;2.42;;
10467;SDS011;5281;48.878;9.394;2023-09-18T01:02:42;2.53;;;1.90;;
10467;SDS011;5281;48.878;9.394;2023-09-18T01:05:12;2.80;;;2.50;;
10467;SDS011;5281;48.878;9.394;2023-09-18T01:07:41;2.97;;;2.20;;
10467;SDS011;5281;48.878;9.394;2023-09-18T01:10:09;2.50;;;2.30;;
10467;SDS011;5281;48.878;9.394;2023-09-18T01:12:42;3.38;;;2.20;;
10467;SDS011;5281;48.878;9.394;2023-09-18T01:15:15;2.70;;;2.42;;
10467;SDS011;5281;48.878;9.394;2023-09-18T01:17:45;3.13;;;2.72;;
10467;SDS011;5281;48.878;9.394;2023-09-18T01:20:14;3.13;;;2.50;;
10467;SDS011;5281;48.878;9.394;2023-09-18T01:22:42;2.45;;;2.00;;
10467;SDS011;5281;48.878;9.394;2023-09-18T01:25:09;3.10;;;2.40;;
10467;SDS011;5281;48.878;9.394;2023-09-18T01:27:36;2.58;;;2.38;;
10467;SDS011;5281;48.878;9.394;2023-09-18T01:30:03;4.10;;;2.83;;
10467;SDS011;5281;48.878;9.394;2023-09-18T01:32:31;4.45;;;2.45;;
10467;SDS011;5281;48.878;9.394;2023-09-18T01:34:59;2.90;;;2.47;;
10467;SDS011;5281;48.878;9.394;2023-09-18T01:37:30;3.67;;;2.70;;
10467;SDS011;5281;48.878;9.394;2023-09-18T01:40:01;3.13;;;2.38;;
10467;SDS011;5281;48.878;9.394;2023-09-18T01:42:31;2.70;;;2.40;;
10467;SDS011;5281;48.878;9.394;2023-09-18T01:44:59;2.58;;;2.38;;
10467;SDS011;5281;48.878;9.394;2023-09-18T01:47:26;5.90;;;2.83;;
10467;SDS011;5281;48.878;9.394;2023-09-18T01:49:52;4.53;;;2.33;;
10467;SDS011;5281;48.878;9.394;2023-09-18T01:52:19;3.53;;;2.90;;
10467;SDS011;5281;48.878;9.394;2023-09-18T01:54:46;3.17;;;2.20;;
10467;SDS011;5281;48.878;9.394;2023-09-18T01:57:15;4.20;;;2.53;;
10467;SDS011;5281;48.878;9.394;2023-09-18T01:59:41;2.42;;;2.22;;
10467;SDS011;5281;48.878;9.394;2023-09-18T02:02:10;6.18;;;2.40;;
10467;SDS011;5281;48.878;9.394;2023-09-18T02:04:37;2.63;;;2.40;;
10467;SDS011;5281;48.878;9.394;2023-09-18T02:07:05;2.83;;;2.47;;
10467;SDS011;5281;48.878;9.394;2023-09-18T02:09:32;2.65;;;2.30;;
10467;SDS011;5281;48.878;9.394;2023-09-18T02:11:59;5.13;;;2.65;;
10467;SDS011;5281;48.878;9.394;2023-09-18T02:14:27;3.63;;;2.20;;
10467;SDS011;5281;48.878;9.394;2023-09-18T02:16:56;2.70;;;2.00;;
10467;SDS011;5281;48.878;9.394;2023-09-18T02:19:22;3.47;;;2.10;;
10467;SDS011;5281;48.878;9.394;2023-09-18T02:21:49;4.22;;;2.35;;
10467;SDS011;5281;48.878;9.394;2023-09-18T02:24:16;3.50;;;1.90;;
10467;SDS011;5281;48.878;9.394;2023-09-18T02:26:43;6.18;;;2.30;;
10467;SDS011;5281;48.878;9.394;2023-09-18T02:29:10;10.02;;;2.58;;
10467;SDS011;5281;48.878;9.394;2023-09-18T02:31:40;4.97;;;2.10;;
10467;SDS011;5281;48.878;9.394;2023-09-18T02:34:07;5.47;;;2.28;;
10467;SDS011;5281;48.878;9.394;2023-09-18T02:36:34;5.57;;;2.40;;
10467;SDS011;5281;48.878;9.394;2023-09-18T02:39:00;6.53;;;2.28;;
10467;SDS011;5281;48.878;9.394;2023-09-18T02:41:28;5.47;;;2.13;;
10467;SDS011;5281;48.878;9.394;2023-09-18T02:43:55;5.95;;;2.30;;
10467;SDS011;5281;48.878;9.394;2023-09-18T02:46:21;7.18;;;2.70;;
10467;SDS011;5281;48.878;9.394;2023-09-18T02:48:50;7.18;;;2.38;;
10467;SDS011;5281;48.878;9.394;2023-09-18T02:51:16;6.55;;;2.35;;
10467;SDS011;5281;48.878;9.394;2023-09-18T02:53:43;3.78;;;2.22;;
10467;SDS011;5281;48.878;9.394;2023-09-18T02:56:10;6.32;;;2.42;;
10467;SDS011;5281;48.878;9.394;2023-09-18T02:58:36;8.23;;;2.40;;
10467;SDS011;5281;48.878;9.394;2023-09-18T03:01:03;6.72;;;2.40;;
10467;SDS011;5281;48.878;9.394;2023-09-18T03:03:33;3.63;;;2.08;;
10467;SDS011;5281;48.878;9.394;2023-09-18T03:06:01;3.75;;;2.38;;
10467;SDS011;5281;48.878;9.394;2023-09-18T03:08:29;8.10;;;2.60;;
10467;SDS011;5281;48.878;9.394;2023-09-18T03:10:55;6.03;;;2.78;;
10467;SDS011;5281;48.878;9.394;2023-09-18T03:13:22;5.95;;;2.80;;
10467;SDS011;5281;48.878;9.394;2023-09-18T03:15:49;6.20;;;2.85;;
10467;SDS011;5281;48.878;9.394;2023-09-18T03:18:16;7.28;;;2.90;;
10467;SDS011;5281;48.878;9.394;2023-09-18T03:20:43;4.53;;;2.88;;
10467;SDS011;5281;48.878;9.394;2023-09-18T03:23:11;5.00;;;2.65;;
10467;SDS011;5281;48.878;9.394;2023-09-18T03:25:39;5.03;;;2.63;;
10467;SDS011;5281;48.878;9.394;2023-09-18T03:28:06;5.35;;;2.47;;
10467;SDS011;5281;48.878;9.394;2023-09-18T03:30:32;6.47;;;3.08;;
10467;SDS011;5281;48.878;9.394;2023-09-18T03:32:59;4.35;;;2.63;;
10467;SDS011;5281;48.878;9.394;2023-09-18T03:35:28;5.20;;;3.30;;
10467;SDS011;5281;48.878;9.394;2023-09-18T03:37:55;5.68;;;3.20;;
10467;SDS011;5281;48.878;9.394;2023-09-18T03:40:23;6.38;;;3.35;;
10467;SDS011;5281;48.878;9.394;2023-09-18T03:42:50;3.55;;;3.13;;
10467;SDS011;5281;48.878;9.394;2023-09-18T03:45:17;7.63;;;3.58;;
10467;SDS011;5281;48.878;9.394;2023-09-18T03:47:44;5.20;;;2.88;;
10467;SDS011;5281;48.878;9.394;2023-09-18T03:50:11;6.80;;;3.70;;
10467;SDS011;5281;48.878;9.394;2023-09-18T03:52:38;7.75;;;3.03;;
10467;SDS011;5281;48.878;9.394;2023-09-18T03:55:06;8.23;;;3.50;;
10467;SDS011;5281;48.878;9.394;2023-09-18T03:57:35;7.80;;;3.65;;
10467;SDS011;5281;48.878;9.394;2023-09-18T04:00:02;8.55;;;3.22;;
10467;SDS011;5281;48.878;9.394;2023-09-18T04:02:30;8.93;;;2.90;;
10467;SDS011;5281;48.878;9.394;2023-09-18T04:04:57;7.18;;;4.10;;
10467;SDS011;5281;48.878;9.394;2023-09-18T04:07:24;6.63;;;3.72;;
10467;SDS011;5281;48.878;9.394;2023-09-18T04:09:50;8.80;;;4.50;;
10467;SDS011;5281;48.878;9.394;2023-09-18T04:12:17;7.97;;;2.90;;
10467;SDS011;5281;48.878;9.394;2023-09-18T04:14:45;7.80;;;3.42;;
10467;SDS011;5281;48.878;9.394;2023-09-18T04:17:12;8.23;;;2.83;;
10467;SDS011;5281;48.878;9.394;2023-09-18T04:19:40;6.20;;;2.67;;
10467;SDS011;5281;48.878;9.394;2023-09-18T04:22:08;9.00;;;2.75;;
10467;SDS011;5281;48.878;9.394;2023-09-18T04:24:35;5.88;;;2.70;;
10467;SDS011;5281;48.878;9.394;2023-09-18T04:27:01;9.35;;;3.53;;
10467;SDS011;5281;48.878;9.394;2023-09-18T04:29:28;8.82;;;3.22;;
10467;SDS011;5281;48.878;9.394;2023-09-18T04:31:57;11.13;;;3.17;;
10467;SDS011;5281;48.878;9.394;2023-09-18T04:34:24;8.48;;;2.70;;
10467;SDS011;5281;48.878;9.394;2023-09-18T04:36:51;10.23;;;2.88;;
10467;SDS011;5281;48.878;9.394;2023-09-18T04:39:17;7.20;;;4.03;;
10467;SDS011;5281;48.878;9.394;2023-09-18T04:41:44;6.80;;;2.97;;
10467;SDS011;5281;48.878;9.394;2023-09-18T04:44:11;5.45;;;2.83;;
10467;SDS011;5281;48.878;9.394;2023-09-18T04:46:39;7.97;;;3.35;;
10467;SDS011;5281;48.878;9.394;2023-09-18T04:49:08;8.52;;;3.17;;
10467;SDS011;5281;48.878;9.394;2023-09-18T04:51:36;7.43;;;2.83;;
10467;SDS011;5281;48.878;9.394;2023-09-18T04:54:04;7.47;;;3.35;;
10467;SDS011;5281;48.878;9.394;2023-09-18T04:56:31;8.75;;;3.03;;
10467;SDS011;5281;48.878;9.394;2023-09-18T04:58:59;6.95;;;2.90;;
10467;SDS011;5281;48.878;9.394;2023-09-18T05:01:25;9.43;;;3.28;;
10467;SDS011;5281;48.878;9.394;2023-09-18T05:03:52;9.27;;;2.60;;
10467;SDS011;5281;48.878;9.394;2023-09-18T05:06:20;5.97;;;2.83;;
10467;SDS011;5281;48.878;9.394;2023-09-18T05:08:47;6.75;;;2.95;;
10467;SDS011;5281;48.878;9.394;2023-09-18T05:11:14;6.00;;;3.13;;
10467;SDS011;5281;48.878;9.394;2023-09-18T05:13:41;7.15;;;4.45;;
10467;SDS011;5281;48.878;9.394;2023-09-18T05:16:08;10.30;;;3.50;;
10467;SDS011;5281;48.878;9.394;2023-09-18T05:18:35;7.97;;;3.25;;
10467;SDS011;5281;48.878;9.394;2023-09-18T05:21:03;6.90;;;2.88;;
10467;SDS011;5281;48.878;9.394;2023-09-18T05:23:31;8.32;;;2.83;;
10467;SDS011;5281;48.878;9.394;2023-09-18T05:25:59;12.93;;;3.20;;
10467;SDS011;5281;48.878;9.394;2023-09-18T05:28:25;7.75;;;2.97;;
10467;SDS011;5281;48.878;9.394;2023-09-18T05:30:52;13.85;;;3.38;;
10467;SDS011;5281;48.878;9.394;2023-09-18T05:33:20;7.63;;;2.92;;
10467;SDS011;5281;48.878;9.394;2023-09-18T05:35:46;7.22;;;2.78;;
10467;SDS011;5281;48.878;9.394;2023-09-18T05:38:14;10.65;;;3.13;;
10467;SDS011;5281;48.878;9.394;2023-09-18T05:40:44;6.82;;;3.00;;
10467;SDS011;5281;48.878;9.394;2023-09-18T05:43:11;9.38;;;3.60;;
10467;SDS011;5281;48.878;9.394;2023-09-18T05:45:38;8.52;;;3.47;;
10467;SDS011;5281;48.878;9.394;2023-09-18T05:48:05;8.07;;;3.20;;
10467;SDS011;5281;48.878;9.394;2023-09-18T05:50:32;8.75;;;3.15;;
10467;SDS011;5281;48.878;9.394;2023-09-18T05:53:00;8.00;;;3.03;;
10467;SDS011;5281;48.878;9.394;2023-09-18T05:55:29;7.45;;;2.72;;
10467;SDS011;5281;48.878;9.394;2023-09-18T05:57:57;10.45;;;2.85;;
10467;SDS011;5281;48.878;9.394;2023-09-18T06:00:24;11.38;;;4.00;;
10467;SDS011;5281;48.878;9.394;2023-09-18T06:02:51;11.27;;;2.85;;
10467;SDS011;5281;48.878;9.394;2023-09-18T06:05:17;10.30;;;3.47;;
10467;SDS011;5281;48.878;9.394;2023-09-18T06:07:46;8.30;;;2.70;;
10467;SDS011;5281;48.878;9.394;2023-09-18T06:10:13;7.00;;;3.00;;
10467;SDS011;5281;48.878;9.394;2023-09-18T06:12:41;13.88;;;3.75;;
10467;SDS011;5281;48.878;9.394;2023-09-18T06:15:10;13.88;;;3.83;;
10467;SDS011;5281;48.878;9.394;2023-09-18T06:17:37;8.70;;;2.97;;
10467;SDS011;5281;48.878;9.394;2023-09-18T06:20:05;5.85;;;3.15;;
10467;SDS011;5281;48.878;9.394;2023-09-18T06:22:34;11.40;;;2.85;;
10467;SDS011;5281;48.878;9.394;2023-09-18T06:25:02;8.57;;;2.75;;
10467;SDS011;5281;48.878;9.394;2023-09-18T06:27:28;6.68;;;2.72;;
10467;SDS011;5281;48.878;9.394;2023-09-18T06:29:56;8.00;;;2.75;;
10467;SDS011;5281;48.878;9.394;2023-09-18T06:32:25;5.00;;;2.80;;
10467;SDS011;5281;48.878;9.394;2023-09-18T06:34:51;7.03;;;2.55;;
10467;SDS011;5281;48.878;9.394;2023-09-18T06:37:18;6.15;;;2.53;;
10467;SDS011;5281;48.878;9.394;2023-09-18T06:39:45;6.15;;;2.35;;
10467;SDS011;5281;48.878;9.394;2023-09-18T06:42:12;8.40;;;2.67;;
10467;SDS011;5281;48.878;9.394;2023-09-18T06:44:38;10.80;;;2.88;;
10467;SDS011;5281;48.878;9.394;2023-09-18T06:47:06;9.40;;;2.40;;
10467;SDS011;5281;48.878;9.394;2023-09-18T06:49:34;7.07;;;2.70;;
10467;SDS011;5281;48.878;9.394;2023-09-18T06:52:00;11.35;;;3.10;;
10467;SDS011;5281;48.878;9.394;2023-09-18T06:54:27;8.82;;;2.85;;
10467;SDS011;5281;48.878;9.394;2023-09-18T06:56:54;10.60;;;2.95;;
10467;SDS011;5281;48.878;9.394;2023-09-18T06:59:21;7.53;;;2.35;;
10467;SDS011;5281;48.878;9.394;2023-09-18T07:01:48;7.22;;;2.20;;
10467;SDS011;5281;48.878;9.394;2023-09-18T07:04:15;9.50;;;2.35;;
10467;SDS011;5281;48.878;9.394;2023-09-18T07:06:43;6.88;;;2.30;;
10467;SDS011;5281;48.878;9.394;2023-09-18T07:09:11;8.00;;;2.35;;
10467;SDS011;5281;48.878;9.394;2023-09-18T07:11:39;9.98;;;2.60;;
10467;SDS011;5281;48.878;9.394;2023-09-18T07:14:05;10.85;;;2.25;;
10467;SDS011;5281;48.878;9.394;2023-09-18T07:16:33;8.15;;;2.55;;
10467;SDS011;5281;48.878;9.394;2023-09-18T07:19:00;10.90;;;4.88;;
10467;SDS011;5281;48.878;9.394;2023-09-18T07:21:29;7.45;;;2.67;;
10467;SDS011;5281;48.878;9.394;2023-09-18T07:23:57;6.75;;;2.20;;
10467;SDS011;5281;48.878;9.394;2023-09-18T07:26:24;8.10;;;2.20;;
10467;SDS011;5281;48.878;9.394;2023-09-18T07:28:51;7.30;;;3.28;;
10467;SDS011;5281;48.878;9.394;2023-09-18T07:31:17;8.77;;;2.08;;
10467;SDS011;5281;48.878;9.394;2023-09-18T07:33:44;5.53;;;2.15;;
10467;SDS011;5281;48.878;9.394;2023-09-18T07:36:11;6.30;;;2.08;;
10467;SDS011;5281;48.878;9.394;2023-09-18T07:38:40;6.03;;;1.90;;
10467;SDS011;5281;48.878;9.394;2023-09-18T07:41:09;9.10;;;1.90;;
10467;SDS011;5281;48.878;9.394;2023-09-18T07:43:36;6.13;;;1.70;;
10467;SDS011;5281;48.878;9.394;2023-09-18T07:46:04;5.50;;;1.88;;
10467;SDS011;5281;48.878;9.394;2023-09-18T07:48:30;6.97;;;1.52;;
10467;SDS011;5281;48.878;9.394;2023-09-18T07:50:57;8.88;;;1.83;;
10467;SDS011;5281;48.878;9.394;2023-09-18T07:53:24;6.43;;;1.73;;
10467;SDS011;5281;48.878;9.394;2023-09-18T07:55:55;7.85;;;2.13;;
10467;SDS011;5281;48.878;9.394;2023-09-18T07:58:25;9.07;;;2.60;;
10467;SDS011;5281;48.878;9.394;2023-09-18T08:00:52;5.05;;;2.00;;
10467;SDS011;5281;48.878;9.394;2023-09-18T08:03:20;10.00;;;3.15;;
10467;SDS011;5281;48.878;9.394;2023-09-18T08:05:49;10.00;;;3.38;;
10467;SDS011;5281;48.878;9.394;2023-09-18T08:08:15;5.47;;;2.03;;
10467;SDS011;5281;48.878;9.394;2023-09-18T08:10:42;6.35;;;1.95;;
10467;SDS011;5281;48.878;9.394;2023-09-18T08:13:09;5.18;;;1.90;;
10467;SDS011;5281;48.878;9.394;2023-09-18T08:15:37;4.55;;;1.38;;
10467;SDS011;5281;48.878;9.394;2023-09-18T08:18:04;4.28;;;1.63;;
10467;SDS011;5281;48.878;9.394;2023-09-18T08:20:30;5.55;;;1.67;;
10467;SDS011;5281;48.878;9.394;2023-09-18T08:22:58;6.38;;;1.95;;
10467;SDS011;5281;48.878;9.394;2023-09-18T08:25:26;5.90;;;1.65;;
10467;SDS011;5281;48.878;9.394;2023-09-18T08:27:52;4.60;;;2.13;;
10467;SDS011;5281;48.878;9.394;2023-09-18T08:30:19;4.72;;;1.67;;
10467;SDS011;5281;48.878;9.394;2023-09-18T08:32:48;7.47;;;1.90;;
10467;SDS011;5281;48.878;9.394;2023-09-18T08:35:15;7.28;;;1.60;;
10467;SDS011;5281;48.878;9.394;2023-09-18T08:37:41;4.43;;;1.80;;
10467;SDS011;5281;48.878;9.394;2023-09-18T08:40:09;7.40;;;1.83;;
10467;SDS011;5281;48.878;9.394;2023-09-18T08:42:39;8.68;;;1.67;;
10467;SDS011;5281;48.878;9.394;2023-09-18T08:45:07;4.53;;;1.50;;
10467;SDS011;5281;48.878;9.394;2023-09-18T08:47:36;4.63;;;1.40;;
10467;SDS011;5281;48.878;9.394;2023-09-18T08:50:06;2.58;;;0.80;;
10467;SDS011;5281;48.878;9.394;2023-09-18T08:52:34;3.08;;;1.13;;
10467;SDS011;5281;48.878;9.394;2023-09-18T08:55:02;3.75;;;1.38;;
10467;SDS011;5281;48.878;9.394;2023-09-18T08:57:30;4.30;;;1.08;;
10467;SDS011;5281;48.878;9.394;2023-09-18T08:59:58;4.35;;;1.35;;
10467;SDS011;5281;48.878;9.394;2023-09-18T09:02:30;4.32;;;1.33;;
10467;SDS011;5281;48.878;9.394;2023-09-18T09:04:57;6.05;;;1.17;;
10467;SDS011;5281;48.878;9.394;2023-09-18T09:07:25;2.85;;;1.10;;
10467;SDS011;5281;48.878;9.394;2023-09-18T09:09:53;3.85;;;1.23;;
10467;SDS011;5281;48.878;9.394;2023-09-18T09:15:21;4.43;;;1.20;;
10467;SDS011;5281;48.878;9.394;2023-09-18T09:17:48;6.30;;;1.30;;
10467;SDS011;5281;48.878;9.394;2023-09-18T09:20:16;7.32;;;1.10;;
10467;SDS011;5281;48.878;9.394;2023-09-18T09:22:45;2.05;;;0.80;;
10467;SDS011;5281;48.878;9.394;2023-09-18T09:27:56;5.88;;;1.50;;
10467;SDS011;5281;48.878;9.394;2023-09-18T09:30:25;7.10;;;1.40;;
10467;SDS011;5281;48.878;9.394;2023-09-18T09:32:53;7.50;;;1.70;;
10467;SDS011;5281;48.878;9.394;2023-09-18T09:35:21;2.80;;;1.00;;
10467;SDS011;5281;48.878;9.394;2023-09-18T09:37:50;4.90;;;1.20;;
10467;SDS011;5281;48.878;9.394;2023-09-18T09:40:18;3.78;;;0.95;;
10467;SDS011;5281;48.878;9.394;2023-09-18T09:42:46;4.95;;;3.25;;
10467;SDS011;5281;48.878;9.394;2023-09-18T09:45:14;3.50;;;1.15;;
10467;SDS011;5281;48.878;9.394;2023-09-18T09:47:41;1.50;;;1.00;;
10467;SDS011;5281;48.878;9.394;2023-09-18T09:50:09;3.05;;;1.02;;
10467;SDS011;5281;48.878;9.394;2023-09-18T09:52:43;4.40;;;1.95;;
10467;SDS011;5281;48.878;9.394;2023-09-18T09:55:20;4.07;;;1.58;;
10467;SDS011;5281;48.878;9.394;2023-09-18T09:57:49;2.95;;;1.25;;
10467;SDS011;5281;48.878;9.394;2023-09-18T10:00:18;9.18;;;6.68;;
10467;SDS011;5281;48.878;9.394;2023-09-18T10:02:52;1.98;;;1.05;;
10467;SDS011;5281;48.878;9.394;2023-09-18T10:05:21;3.47;;;1.13;;
10467;SDS011;5281;48.878;9.394;2023-09-18T10:07:52;2.28;;;1.10;;
10467;SDS011;5281;48.878;9.394;2023-09-18T10:10:21;3.40;;;1.13;;
10467;SDS011;5281;48.878;9.394;2023-09-18T10:12:48;1.45;;;0.93;;
10467;SDS011;5281;48.878;9.394;2023-09-18T10:15:15;4.22;;;1.30;;
10467;SDS011;5281;48.878;9.394;2023-09-18T10:17:45;2.35;;;1.13;;
10467;SDS011;5281;48.878;9.394;2023-09-18T10:20:15;1.48;;;0.98;;
10467;SDS011;5281;48.878;9.394;2023-09-18T10:22:46;2.67;;;1.30;;
10467;SDS011;5281;48.878;9.394;2023-09-18T10:25:18;3.03;;;1.23;;
10467;SDS011;5281;48.878;9.394;2023-09-18T10:27:50;4.22;;;1.10;;
10467;SDS011;5281;48.878;9.394;2023-09-18T10:30:18;5.70;;;3.17;;
10467;SDS011;5281;48.878;9.394;2023-09-18T10:32:47;4.05;;;1.13;;
10467;SDS011;5281;48.878;9.394;2023-09-18T10:35:15;2.78;;;1.23;;
10467;SDS011;5281;48.878;9.394;2023-09-18T10:37:43;4.30;;;1.15;;
10467;SDS011;5281;48.878;9.394;2023-09-18T10:40:09;5.25;;;2.42;;
10467;SDS011;5281;48.878;9.394;2023-09-18T10:42:38;4.05;;;1.63;;
10467;SDS011;5281;48.878;9.394;2023-09-18T10:45:07;3.17;;;1.33;;
10467;SDS011;5281;48.878;9.394;2023-09-18T10:47:36;3.60;;;1.38;;
10467;SDS011;5281;48.878;9.394;2023-09-18T10:50:04;3.55;;;1.20;;
10467;SDS011;5281;48.878;9.394;2023-09-18T10:52:32;3.45;;;1.30;;
10467;SDS011;5281;48.878;9.394;2023-09-18T10:54:59;1.92;;;0.95;;
10467;SDS011;5281;48.878;9.394;2023-09-18T10:57:27;3.58;;;1.17;;
10467;SDS011;5281;48.878;9.394;2023-09-18T10:59:55;2.85;;;1.10;;
10467;SDS011;5281;48.878;9.394;2023-09-18T11:02:23;2.78;;;1.20;;
10467;SDS011;5281;48.878;9.394;2023-09-18T11:04:51;3.92;;;1.00;;
10467;SDS011;5281;48.878;9.394;2023-09-18T11:07:20;5.25;;;1.00;;
10467;SDS011;5281;48.878;9.394;2023-09-18T11:09:48;1.73;;;0.88;;
10467;SDS011;5281;48.878;9.394;2023-09-18T11:12:15;3.15;;;0.90;;
10467;SDS011;5281;48.878;9.394;2023-09-18T11:14:44;2.75;;;1.20;;
10467;SDS011;5281;48.878;9.394;2023-09-18T11:17:28;2.65;;;0.90;;
10467;SDS011;5281;48.878;9.394;2023-09-18T11:20:03;2.08;;;1.10;;
10467;SDS011;5281;48.878;9.394;2023-09-18T11:22:34;1.98;;;1.10;;
10467;SDS011;5281;48.878;9.394;2023-09-18T11:27:56;2.65;;;0.80;;
10467;SDS011;5281;48.878;9.394;2023-09-18T11:30:23;1.92;;;1.02;;
10467;SDS011;5281;48.878;9.394;2023-09-18T11:32:52;3.72;;;1.08;;
10467;SDS011;5281;48.878;9.394;2023-09-18T11:35:20;4.13;;;1.10;;
10467;SDS011;5281;48.878;9.394;2023-09-18T11:37:47;2.15;;;1.17;;
10467;SDS011;5281;48.878;9.394;2023-09-18T11:40:31;1.67;;;0.90;;
10467;SDS011;5281;48.878;9.394;2023-09-18T11:43:18;2.13;;;1.10;;
10467;SDS011;5281;48.878;9.394;2023-09-18T11:45:54;3.92;;;0.95;;
10467;SDS011;5281;48.878;9.394;2023-09-18T11:48:23;1.13;;;0.70;;
10467;SDS011;5281;48.878;9.394;2023-09-18T11:50:53;2.03;;;0.80;;
10467;SDS011;5281;48.878;9.394;2023-09-18T11:53:20;1.48;;;0.75;;
10467;SDS011;5281;48.878;9.394;2023-09-18T11:55:49;4.22;;;1.20;;
10467;SDS011;5281;48.878;9.394;2023-09-18T11:58:16;1.50;;;0.85;;
10467;SDS011;5281;48.878;9.394;2023-09-18T12:00:45;2.40;;;0.63;;
10467;SDS011;5281;48.878;9.394;2023-09-18T12:03:18;2.97;;;1.00;;
10467;SDS011;5281;48.878;9.394;2023-09-18T12:05:53;0.98;;;0.68;;
10467;SDS011;5281;48.878;9.394;2023-09-18T12:08:21;3.10;;;0.85;;
10467;SDS011;5281;48.878;9.394;2023-09-18T12:10:51;3.10;;;0.98;;
10467;SDS011;5281;48.878;9.394;2023-09-18T12:13:18;2.95;;;0.80;;
10467;SDS011;5281;48.878;9.394;2023-09-18T12:15:45;1.55;;;0.80;;
10467;SDS011;5281;48.878;9.394;2023-09-18T12:18:13;1.17;;;0.70;;
10467;SDS011;5281;48.878;9.394;2023-09-18T12:20:44;1.10;;;0.80;;
10467;SDS011;5281;48.878;9.394;2023-09-18T12:23:13;2.58;;;0.80;;
10467;SDS011;5281;48.878;9.394;2023-09-18T12:25:40;3.42;;;0.82;;
10467;SDS011;5281;48.878;9.394;2023-09-18T12:28:07;2.53;;;0.80;;
10467;SDS011;5281;48.878;9.394;2023-09-18T12:30:34;3.33;;;0.90;;
10467;SDS011;5281;48.878;9.394;2023-09-18T12:33:01;1.30;;;0.90;;
10467;SDS011;5281;48.878;9.394;2023-09-18T12:35:28;2.67;;;0.73;;
10467;SDS011;5281;48.878;9.394;2023-09-18T12:37:56;4.80;;;1.02;;
10467;SDS011;5281;48.878;9.394;2023-09-18T12:40:26;1.50;;;0.80;;
10467;SDS011;5281;48.878;9.394;2023-09-18T12:42:54;2.45;;;1.00;;
10467;SDS011;5281;48.878;9.394;2023-09-18T12:45:22;1.40;;;0.90;;
10467;SDS011;5281;48.878;9.394;2023-09-18T12:47:50;2.25;;;1.13;;
10467;SDS011;5281;48.878;9.394;2023-09-18T12:50:17;1.42;;;1.00;;
10467;SDS011;5281;48.878;9.394;2023-09-18T12:52:44;3.78;;;1.00;;
10467;SDS011;5281;48.878;9.394;2023-09-18T12:55:20;3.00;;;1.23;;
10467;SDS011;5281;48.878;9.394;2023-09-18T12:57:53;1.92;;;0.93;;
10467;SDS011;5281;48.878;9.394;2023-09-18T13:00:20;2.95;;;0.88;;
10467;SDS011;5281;48.878;9.394;2023-09-18T13:02:48;3.10;;;1.02;;
10467;SDS011;5281;48.878;9.394;2023-09-18T13:05:19;3.58;;;0.73;;
10467;SDS011;5281;48.878;9.394;2023-09-18T13:07:50;3.15;;;0.90;;
10467;SDS011;5281;48.878;9.394;2023-09-18T13:10:18;1.77;;;1.00;;
10467;SDS011;5281;48.878;9.394;2023-09-18T13:12:48;4.65;;;1.00;;
10467;SDS011;5281;48.878;9.394;2023-09-18T13:15:24;3.42;;;1.35;;
10467;SDS011;5281;48.878;9.394;2023-09-18T13:17:52;1.42;;;0.98;;
10467;SDS011;5281;48.878;9.394;2023-09-18T13:20:20;3.83;;;1.10;;
10467;SDS011;5281;48.878;9.394;2023-09-18T13:22:50;2.45;;;1.08;;
10467;SDS011;5281;48.878;9.394;2023-09-18T13:25:21;2.92;;;1.15;;
10467;SDS011;5281;48.878;9.394;2023-09-18T13:27:49;5.10;;;1.23;;
10467;SDS011;5281;48.878;9.394;2023-09-18T13:30:17;3.55;;;0.93;;
10467;SDS011;5281;48.878;9.394;2023-09-18T13:32:45;6.03;;;0.98;;
10467;SDS011;5281;48.878;9.394;2023-09-18T13:35:13;1.25;;;0.70;;
10467;SDS011;5281;48.878;9.394;2023-09-18T13:37:41;2.83;;;0.88;;
10467;SDS011;5281;48.878;9.394;2023-09-18T13:40:08;2.30;;;0.90;;
10467;SDS011;5281;48.878;9.394;2023-09-18T13:42:35;4.40;;;0.95;;
10467;SDS011;5281;48.878;9.394;2023-09-18T13:45:04;2.13;;;0.85;;
10467;SDS011;5281;48.878;9.394;2023-09-18T13:47:32;4.05;;;1.02;;
10467;SDS011;5281;48.878;9.394;2023-09-18T13:49:59;3.58;;;1.20;;
10467;SDS011;5281;48.878;9.394;2023-09-18T13:52:27;4.43;;;1.25;;
10467;SDS011;5281;48.878;9.394;2023-09-18T13:54:55;1.90;;;0.90;;
10467;SDS011;5281;48.878;9.394;2023-09-18T13:57:22;3.10;;;1.00;;
10467;SDS011;5281;48.878;9.394;2023-09-18T13:59:50;3.10;;;1.20;;
10467;SDS011;5281;48.878;9.394;2023-09-18T14:02:18;3.17;;;1.60;;
10467;SDS011;5281;48.878;9.394;2023-09-18T14:04:45;2.38;;;1.15;;
10467;SDS011;5281;48.878;9.394;2023-09-18T14:07:12;4.00;;;1.85;;
10467;SDS011;5281;48.878;9.394;2023-09-18T14:09:39;4.40;;;1.30;;
10467;SDS011;5281;48.878;9.394;2023-09-18T14:12:06;2.40;;;1.00;;
10467;SDS011;5281;48.878;9.394;2023-09-18T14:14:33;4.53;;;1.23;;
10467;SDS011;5281;48.878;9.394;2023-09-18T14:17:00;3.15;;;1.30;;
10467;SDS011;5281;48.878;9.394;2023-09-18T14:19:28;2.28;;;1.08;;
10467;SDS011;5281;48.878;9.394;2023-09-18T14:21:55;2.28;;;1.15;;
10467;SDS011;5281;48.878;9.394;2023-09-18T14:24:22;1.42;;;0.70;;
10467;SDS011;5281;48.878;9.394;2023-09-18T14:26:50;3.83;;;1.20;;
10467;SDS011;5281;48.878;9.394;2023-09-18T14:29:17;2.35;;;0.95;;
10467;SDS011;5281;48.878;9.394;2023-09-18T14:31:44;2.20;;;1.23;;
10467;SDS011;5281;48.878;9.394;2023-09-18T14:34:11;2.40;;;1.08;;
10467;SDS011;5281;48.878;9.394;2023-09-18T14:36:39;3.97;;;1.10;;
10467;SDS011;5281;48.878;9.394;2023-09-18T14:39:06;2.53;;;0.75;;
10467;SDS011;5281;48.878;9.394;2023-09-18T14:41:34;4.75;;;1.40;;
10467;SDS011;5281;48.878;9.394;2023-09-18T14:44:00;1.95;;;0.90;;
10467;SDS011;5281;48.878;9.394;2023-09-18T14:46:28;3.75;;;2.00;;
10467;SDS011;5281;48.878;9.394;2023-09-18T14:48:55;5.45;;;2.90;;
10467;SDS011;5281;48.878;9.394;2023-09-18T14:51:22;2.65;;;1.10;;
10467;SDS011;5281;48.878;9.394;2023-09-18T14:53:50;3.45;;;1.80;;
10467;SDS011;5281;48.878;9.394;2023-09-18T14:56:19;2.78;;;1.85;;
10467;SDS011;5281;48.878;9.394;2023-09-18T14:58:45;4.68;;;0.95;;
10467;SDS011;5281;48.878;9.394;2023-09-18T15:01:12;4.07;;;1.15;;
10467;SDS011;5281;48.878;9.394;2023-09-18T15:03:39;2.33;;;1.70;;
10467;SDS011;5281;48.878;9.394;2023-09-18T15:06:06;2.35;;;0.90;;
10467;SDS011;5281;48.878;9.394;2023-09-18T15:08:33;1.60;;;0.90;;
10467;SDS011;5281;48.878;9.394;2023-09-18T15:11:01;2.22;;;1.02;;
10467;SDS011;5281;48.878;9.394;2023-09-18T15:13:28;3.33;;;0.98;;